Time;durP1;ratioP1;P1;durP2;ratioP2;P2;SDS_P1;SDS_P2;PMS_P1;PMS_P2;Temp;Humidity;BMP_temperature;BMP_pressure;BME280_temperature;BME280_humidity;BME280_pressure;Samples;Min_cycle;Max_cycle;Signal;HPM_P1;HPM_P2
2021/12/17 00:04:37;;;;;;;84.75;35.03;;;;;;;7.25;100.00;103696.34;4972804;28;20152;-79
2021/12/17 00:07:12;;;;;;;94.75;37.30;;;;;;;7.26;100.00;103703.22;4965227;28;20030;-80
2021/12/17 00:09:39;;;;;;;94.88;34.83;;;;;;;7.26;100.00;103704.03;4952022;28;20114;-80
2021/12/17 00:12:11;;;;;;;86.20;35.53;;;;;;;7.26;100.00;103698.06;4962957;28;20045;-80
2021/12/17 00:14:38;;;;;;;89.93;36.92;;;;;;;7.25;100.00;103694.59;4965449;28;20038;-80
2021/12/17 00:17:08;;;;;;;93.15;37.25;;;;;;;7.27;100.00;103695.41;4965696;28;20050;-80
2021/12/17 00:49:07;;;;;;;88.15;35.15;;;;;;;7.22;100.00;103669.78;4963088;28;20031;-80
2021/12/17 00:54:29;;;;;;;84.80;34.65;;;;;;;7.24;100.00;103667.13;4954959;28;20129;-79
2021/12/17 00:56:57;;;;;;;86.43;34.42;;;;;;;7.21;100.00;103660.38;4958188;28;20030;-79
2021/12/17 00:59:23;;;;;;;96.03;35.40;;;;;;;7.21;100.00;103664.66;4962409;28;20159;-80
2021/12/17 01:01:50;;;;;;;92.90;35.75;;;;;;;7.22;100.00;103667.19;4960030;28;20125;-80
2021/12/17 01:04:17;;;;;;;88.40;33.97;;;;;;;7.21;100.00;103656.94;4950957;28;20042;-80
2021/12/17 01:06:42;;;;;;;84.50;34.15;;;;;;;7.21;100.00;103662.94;4948884;28;20425;-80
2021/12/17 01:09:10;;;;;;;81.43;33.83;;;;;;;7.22;100.00;103658.63;4950607;28;20026;-80
2021/12/17 01:11:36;;;;;;;95.95;38.30;;;;;;;7.21;100.00;103655.22;4948243;28;20030;-79
2021/12/17 01:14:16;;;;;;;90.15;37.08;;;;;;;7.24;100.00;103655.97;4967638;28;20101;-80
2021/12/17 01:17:01;;;;;;;84.32;35.92;;;;;;;7.24;100.00;103648.22;4958795;28;20142;-80
2021/12/17 01:23:43;;;;;;;84.75;34.63;;;;;;;7.24;100.00;103649.06;4960043;28;20022;-80
2021/12/17 01:38:42;;;;;;;81.60;33.45;;;;;;;7.19;100.00;103644.09;4967518;28;20409;-80
2021/12/17 01:40:50;;;;;;;78.75;35.58;;;;;;;7.18;100.00;103645.00;4962437;28;20037;-80
2021/12/17 01:43:16;;;;;;;80.15;34.35;;;;;;;7.20;100.00;103638.03;4963463;28;20126;-79
2021/12/17 01:45:42;;;;;;;87.00;35.03;;;;;;;7.24;100.00;103637.91;4967588;28;20119;-80
2021/12/17 01:48:17;;;;;;;88.53;36.20;;;;;;;7.24;100.00;103643.06;4962456;28;20041;-80
2021/12/17 01:56:30;;;;;;;78.88;35.13;;;;;;;7.21;100.00;103650.03;4964514;28;20045;-80
2021/12/17 02:01:41;;;;;;;76.03;32.50;;;;;;;7.20;100.00;103650.94;4968012;28;20038;-80
2021/12/17 02:04:07;;;;;;;76.43;33.08;;;;;;;7.19;100.00;103651.81;4954643;28;20031;-80
2021/12/17 02:06:36;;;;;;;76.30;33.90;;;;;;;7.21;100.00;103660.38;4966888;28;20031;-80
2021/12/17 02:09:11;;;;;;;83.65;34.28;;;;;;;7.21;100.00;103660.38;4957196;28;20485;-80
2021/12/17 02:31:01;;;;;;;82.13;34.35;;;;;;;7.19;100.00;103669.88;4965302;28;20175;-80
2021/12/17 02:33:27;;;;;;;79.32;33.88;;;;;;;7.18;100.00;103665.66;4967199;28;20122;-79
2021/12/17 02:35:55;;;;;;;76.20;32.95;;;;;;;7.18;100.00;103665.66;4971655;28;20548;-79
2021/12/17 02:38:20;;;;;;;74.95;32.90;;;;;;;7.18;100.00;103664.81;4965858;28;20038;-80
2021/12/17 02:46:59;;;;;;;88.07;35.83;;;;;;;7.20;100.00;103666.41;4964982;28;20031;-80
2021/12/17 02:49:28;;;;;;;87.22;33.28;;;;;;;7.19;100.00;103659.56;4970951;28;20031;-80
2021/12/17 02:51:55;;;;;;;88.25;34.88;;;;;;;7.17;100.00;103661.38;4952549;28;20473;-80
2021/12/17 02:54:21;;;;;;;83.88;35.90;;;;;;;7.16;100.00;103664.88;4946903;28;20039;-80
2021/12/17 02:56:47;;;;;;;77.97;32.20;;;;;;;7.17;100.00;103668.28;4942160;28;20595;-80
2021/12/17 02:59:15;;;;;;;80.90;32.03;;;;;;;7.16;100.00;103669.22;4959615;28;20038;-79
2021/12/17 03:01:44;;;;;;;90.68;36.05;;;;;;;7.18;100.00;103673.38;4954835;28;20026;-80
2021/12/17 03:04:12;;;;;;;83.78;34.15;;;;;;;7.17;100.00;103671.69;4983281;28;20410;-80
2021/12/17 03:06:40;;;;;;;87.57;34.67;;;;;;;7.17;100.00;103676.03;4968763;28;20129;-80
2021/12/17 03:09:06;;;;;;;92.43;37.35;;;;;;;7.21;100.00;103675.84;4963826;28;20213;-80
2021/12/17 03:11:31;;;;;;;86.10;35.13;;;;;;;7.17;100.00;103669.13;4964077;28;20446;-80
2021/12/17 03:13:57;;;;;;;90.25;36.78;;;;;;;7.16;100.00;103666.63;4982700;28;20074;-80
2021/12/17 03:16:29;;;;;;;97.25;37.38;;;;;;;7.16;100.00;103664.88;4953616;28;20031;-80
2021/12/17 03:19:24;;;;;;;90.18;35.78;;;;;;;7.13;100.00;103665.00;4986267;28;20126;-80
2021/12/17 03:24:34;;;;;;;98.40;35.92;;;;;;;7.14;100.00;103665.81;4966080;28;20035;-80
2021/12/17 03:26:59;;;;;;;106.57;37.50;;;;;;;7.14;100.00;103671.84;4949837;28;20030;-79
2021/12/17 03:29:25;;;;;;;105.15;37.67;;;;;;;7.18;100.00;103670.81;4948635;28;20031;-80
2021/12/17 03:31:59;;;;;;;108.77;39.60;;;;;;;7.14;100.00;103673.56;4951106;28;20459;-80
2021/12/17 03:34:24;;;;;;;114.05;38.47;;;;;;;7.14;100.00;103671.84;4946877;28;20478;-80
2021/12/17 03:36:56;;;;;;;104.90;37.75;;;;;;;7.12;100.00;103671.06;4985327;28;20062;-80
2021/12/17 03:39:27;;;;;;;110.65;39.30;;;;;;;7.17;100.00;103657.97;4953210;28;20042;-80
2021/12/17 03:41:55;;;;;;;107.20;36.67;;;;;;;7.16;100.00;103664.88;4960404;28;20572;-80
2021/12/17 03:44:34;;;;;;;111.38;38.60;;;;;;;7.19;100.00;103669.88;4970381;28;20042;-80
2021/12/17 03:47:01;;;;;;;112.90;37.78;;;;;;;7.15;100.00;103670.94;4966146;28;20043;-80
2021/12/17 03:49:30;;;;;;;88.68;34.33;;;;;;;7.11;100.00;103666.81;4965251;28;20416;-80
2021/12/17 03:52:05;;;;;;;102.22;37.35;;;;;;;7.11;100.00;103668.56;4964276;28;20556;-80
2021/12/17 03:54:35;;;;;;;100.43;36.03;;;;;;;7.08;100.00;103664.34;4970034;28;20030;-80
2021/12/17 03:57:05;;;;;;;86.80;33.80;;;;;;;7.10;100.00;103669.44;4966647;28;20506;-80
2021/12/17 03:59:33;;;;;;;95.65;35.42;;;;;;;7.09;100.00;103666.03;4966676;28;20037;-80
2021/12/17 04:01:59;;;;;;;95.20;34.92;;;;;;;7.09;100.00;103666.03;4944512;28;20046;-80
2021/12/17 04:04:24;;;;;;;96.60;35.58;;;;;;;7.13;100.00;103669.31;4951762;28;20398;-80
2021/12/17 04:07:05;;;;;;;104.50;35.58;;;;;;;7.16;100.00;103664.88;4960344;28;20122;-80
2021/12/17 04:09:43;;;;;;;100.47;36.72;;;;;;;7.14;100.00;103669.25;4947398;28;20477;-80
2021/12/17 04:12:19;;;;;;;98.13;34.57;;;;;;;7.10;100.00;103664.28;4950431;28;20035;-80
2021/12/17 04:15:04;;;;;;;96.15;35.95;;;;;;;7.11;100.00;103653.06;4962396;28;20113;-79
2021/12/17 04:17:38;;;;;;;86.80;32.05;;;;;;;7.10;100.00;103651.38;4942658;28;20029;-80
2021/12/17 04:20:05;;;;;;;89.88;33.92;;;;;;;7.12;100.00;103655.59;4947558;28;20393;-78
2021/12/17 04:22:31;;;;;;;96.80;34.38;;;;;;;7.11;100.00;103648.72;4966057;28;20568;-79
2021/12/17 04:24:57;;;;;;;103.22;36.55;;;;;;;7.14;100.00;103648.63;4963516;28;20037;-79
2021/12/17 04:27:22;;;;;;;106.07;37.95;;;;;;;7.09;100.00;103645.38;4953383;28;20031;-80
2021/12/17 04:29:49;;;;;;;106.07;36.60;;;;;;;7.08;100.00;103654.00;4955879;28;20459;-80
2021/12/17 04:32:14;;;;;;;103.60;36.00;;;;;;;7.05;100.00;103654.16;4943592;28;20086;-79
2021/12/17 04:34:40;;;;;;;104.28;36.42;;;;;;;7.08;100.00;103655.75;4956549;28;20033;-80
2021/12/17 04:37:07;;;;;;;107.13;37.60;;;;;;;7.09;100.00;103660.88;4953632;28;20029;-80
2021/12/17 04:39:44;;;;;;;112.65;36.47;;;;;;;7.08;100.00;103661.75;4957117;28;20089;-80
2021/12/17 04:42:24;;;;;;;114.07;35.80;;;;;;;7.07;100.00;103665.25;4965862;28;20038;-79
2021/12/17 04:44:54;;;;;;;110.95;37.50;;;;;;;7.06;100.00;103663.56;4960169;28;20027;-80
2021/12/17 04:58:19;;;;;;;101.40;33.70;;;;;;;7.08;100.00;103666.09;4967952;28;20048;-80
2021/12/17 05:00:44;;;;;;;107.13;34.30;;;;;;;7.03;100.00;103663.72;4953335;28;20027;-80
2021/12/17 05:03:18;;;;;;;116.50;35.72;;;;;;;7.01;100.00;103668.09;4963911;28;20505;-80
2021/12/17 05:05:47;;;;;;;115.30;35.28;;;;;;;7.01;100.00;103668.09;4995217;23;20042;-68
2021/12/17 05:08:25;;;;;;;107.20;33.33;;;;;;;6.98;100.00;103660.47;4986890;28;20154;-68
2021/12/17 05:19:43;;;;;;;120.68;35.28;;;;;;;6.98;100.00;103671.63;4965335;28;20089;-69
2021/12/17 05:21:39;;;;;;;123.55;35.25;;;;;;;7.01;100.00;103668.09;4959990;28;20086;-68
2021/12/17 05:24:05;;;;;;;113.95;34.25;;;;;;;6.96;100.00;103665.69;4962099;28;20038;-68
2021/12/17 05:26:32;;;;;;;107.82;33.70;;;;;;;6.94;100.00;103662.34;4969148;28;20041;-68
2021/12/17 05:28:58;;;;;;;108.53;33.08;;;;;;;6.92;100.00;103671.88;4969181;28;20027;-68
2021/12/17 05:31:32;;;;;;;117.65;34.80;;;;;;;6.91;100.00;103665.06;4968884;28;20127;-69
2021/12/17 05:33:59;;;;;;;110.68;33.97;;;;;;;6.94;100.00;103661.50;4961328;28;20489;-69
2021/12/17 05:36:36;;;;;;;121.90;33.50;;;;;;;6.90;100.00;103672.84;4954296;28;20046;-69
2021/12/17 05:39:16;;;;;;;120.10;34.53;;;;;;;6.89;100.00;103674.56;4967960;28;20042;-69
2021/12/17 05:41:45;;;;;;;115.90;33.55;;;;;;;6.90;100.00;103673.69;4972499;28;20401;-68
2021/12/17 05:44:27;;;;;;;112.00;35.15;;;;;;;6.88;100.00;103670.31;4970630;28;20034;-69
2021/12/17 05:46:55;;;;;;;118.25;34.92;;;;;;;6.91;100.00;103671.94;4970787;28;20549;-68
2021/12/17 05:49:25;;;;;;;116.50;33.58;;;;;;;6.89;100.00;103669.41;4970585;28;20392;-68
2021/12/17 05:51:53;;;;;;;117.03;31.95;;;;;;;6.91;100.00;103667.63;4968724;28;20041;-68
2021/12/17 05:54:20;;;;;;;109.82;32.70;;;;;;;6.90;100.00;103670.28;4947950;28;20513;-68
2021/12/17 05:56:46;;;;;;;108.07;33.17;;;;;;;6.95;100.00;103665.75;4970502;28;20041;-68
2021/12/17 05:59:13;;;;;;;124.15;34.03;;;;;;;6.88;100.00;103667.75;4968072;28;20068;-68
2021/12/17 06:01:39;;;;;;;116.45;32.38;;;;;;;6.87;100.00;103671.22;4968759;28;20030;-69
2021/12/17 06:04:05;;;;;;;121.18;32.70;;;;;;;6.83;100.00;103674.81;4972968;28;20084;-69
2021/12/17 06:06:46;;;;;;;110.40;31.58;;;;;;;6.88;100.00;103672.06;4944528;28;20027;-68
2021/12/17 06:09:13;;;;;;;104.50;32.33;;;;;;;6.90;100.00;103668.53;4975879;28;20033;-68
2021/12/17 06:11:39;;;;;;;100.18;30.80;;;;;;;6.91;100.00;103671.94;4971026;28;20019;-69
2021/12/17 06:14:07;;;;;;;102.03;31.15;;;;;;;6.94;100.00;103669.25;4973049;28;20034;-68
2021/12/17 06:16:36;;;;;;;101.93;28.27;;;;;;;6.91;100.00;103669.34;4969985;28;20481;-68
2021/12/17 06:19:07;;;;;;;97.18;28.95;;;;;;;6.88;100.00;103675.47;4970177;28;20034;-69
2021/12/17 06:21:33;;;;;;;105.25;30.58;;;;;;;6.89;100.00;103673.72;4962552;28;20024;-69
2021/12/17 06:23:59;;;;;;;107.55;31.88;;;;;;;6.88;100.00;103678.06;4965308;28;20105;-69
2021/12/17 06:26:25;;;;;;;106.55;30.88;;;;;;;6.85;100.00;103670.44;4968200;28;20109;-68
2021/12/17 06:28:53;;;;;;;99.60;29.00;;;;;;;6.87;100.00;103667.81;4950365;28;20117;-69
2021/12/17 06:31:20;;;;;;;105.82;31.83;;;;;;;6.89;100.00;103681.47;4990711;23;20324;-74
2021/12/17 06:33:47;;;;;;;103.05;30.23;;;;;;;6.95;100.00;103678.63;4983177;28;20033;-72
2021/12/17 06:36:12;;;;;;;111.75;30.45;;;;;;;6.89;100.00;103679.72;4969583;28;20084;-72
2021/12/17 06:38:39;;;;;;;100.63;29.10;;;;;;;6.86;100.00;103677.28;4988390;28;20022;-73
2021/12/17 06:41:06;;;;;;;112.68;30.85;;;;;;;6.89;100.00;103678.91;4988510;28;20030;-71
2021/12/17 06:43:37;;;;;;;102.75;31.20;;;;;;;6.89;100.00;103678.91;4989315;28;20022;-72
2021/12/17 06:48:56;;;;;;;114.30;33.58;;;;;;;6.83;100.00;103669.66;4991959;28;20042;-72
2021/12/17 07:18:07;;;;;;;101.50;31.13;;;;;;;6.86;100.00;103679.88;4988182;28;20042;-71
2021/12/17 07:23:13;;;;;;;98.47;29.58;;;;;;;6.83;100.00;103685.97;4990469;28;20384;-72
2021/12/17 07:28:53;;;;;;;113.78;30.88;;;;;;;6.86;100.00;103687.59;4991550;28;20022;-71
2021/12/17 07:33:59;;;;;;;114.95;29.50;;;;;;;6.87;100.00;103676.38;4989965;28;20401;-72
2021/12/17 07:38:38;;;;;;;116.95;29.85;;;;;;;6.88;100.00;103672.06;4987093;28;20043;-72
2021/12/17 07:39:44;;;;;;;113.30;28.80;;;;;;;6.86;100.00;103685.03;4987605;28;20026;-73
2021/12/17 07:42:24;;;;;;;113.82;28.73;;;;;;;6.83;100.00;103690.28;4995088;28;20081;-72
2021/12/17 07:44:55;;;;;;;116.95;27.98;;;;;;;6.85;100.00;103687.66;4991846;28;20044;-72
2021/12/17 07:47:21;;;;;;;128.55;29.83;;;;;;;6.83;100.00;103680.81;4987688;28;20038;-72
2021/12/17 07:50:07;;;;;;;123.00;29.25;;;;;;;6.84;100.00;103681.66;4989733;28;20054;-72
2021/12/17 07:52:39;;;;;;;137.50;32.07;;;;;;;6.80;100.00;103686.13;4984875;28;20030;-72
2021/12/17 07:55:05;;;;;;;119.75;30.20;;;;;;;6.79;100.00;103681.84;4988292;28;20026;-72
2021/12/17 07:57:31;;;;;;;121.65;30.05;;;;;;;6.79;100.00;103688.75;4977296;28;20484;-72
2021/12/17 07:59:56;;;;;;;127.65;28.65;;;;;;;6.83;100.00;103685.13;4986415;28;20042;-73
2021/12/17 08:02:22;;;;;;;128.70;28.88;;;;;;;6.78;100.00;103692.22;4990045;28;20038;-71
2021/12/17 08:04:58;;;;;;;120.88;26.30;;;;;;;6.79;100.00;103689.56;4987389;28;20045;-72
2021/12/17 08:07:23;;;;;;;142.02;28.98;;;;;;;6.85;100.00;103688.50;4991703;28;20027;-71
2021/12/17 08:09:49;;;;;;;113.43;26.63;;;;;;;6.80;100.00;103693.84;4988001;28;20023;-72
2021/12/17 08:12:17;;;;;;;123.10;27.08;;;;;;;6.78;100.00;103694.78;4990096;28;20022;-72
2021/12/17 08:14:56;;;;;;;118.47;24.85;;;;;;;6.79;100.00;103699.06;4974215;28;20030;-71
2021/12/17 08:25:26;;;;;;;116.30;25.00;;;;;;;6.79;100.00;103714.53;4988252;28;20042;-72
2021/12/17 08:28:05;;;;;;;124.10;27.10;;;;;;;6.79;100.00;103715.38;4990277;28;20102;-72
2021/12/17 08:30:43;;;;;;;119.03;25.70;;;;;;;6.82;100.00;103711.84;4988683;28;20061;-72
2021/12/17 08:33:20;;;;;;;98.60;22.45;;;;;;;6.82;100.00;103710.09;4991540;28;20032;-72
2021/12/17 08:35:48;;;;;;;99.73;22.23;;;;;;;6.83;100.00;103713.50;4990028;28;20118;-72
2021/12/17 08:38:20;;;;;;;97.70;22.55;;;;;;;6.83;100.00;103721.25;4988678;28;20085;-72
2021/12/17 08:40:49;;;;;;;107.80;23.05;;;;;;;6.85;100.00;103731.50;4973191;28;20046;-72
2021/12/17 08:43:16;;;;;;;102.85;23.88;;;;;;;6.84;100.00;103722.94;4989565;28;20482;-72
2021/12/17 08:45:47;;;;;;;95.20;22.25;;;;;;;6.83;100.00;103731.56;4987941;28;20042;-72
2021/12/17 08:48:42;;;;;;;109.70;23.10;;;;;;;6.87;100.00;103735.69;4982930;28;20034;-72
2021/12/17 08:51:30;;;;;;;114.80;24.20;;;;;;;6.92;100.00;103740.69;4986701;28;20027;-71
2021/12/17 08:53:57;;;;;;;95.10;22.48;;;;;;;6.94;100.00;103744.06;4988984;28;20121;-72
2021/12/17 08:56:30;;;;;;;98.90;23.35;;;;;;;6.90;100.00;103740.75;4983732;28;20026;-72
2021/12/17 08:58:58;;;;;;;103.78;22.40;;;;;;;6.87;100.00;103745.19;4989759;28;20040;-71
2021/12/17 09:01:30;;;;;;;103.50;23.27;;;;;;;6.87;100.00;103743.44;4982462;28;20420;-72
2021/12/17 09:03:56;;;;;;;112.45;24.00;;;;;;;6.84;100.00;103746.16;4985382;28;20035;-72
2021/12/17 09:06:38;;;;;;;102.43;25.05;;;;;;;6.90;100.00;103745.91;4985761;28;20038;-71
2021/12/17 09:09:05;;;;;;;93.90;21.85;;;;;;;6.90;100.00;103750.25;4989519;28;20030;-73
2021/12/17 09:11:34;;;;;;;103.57;22.88;;;;;;;6.89;100.00;103746.78;4987206;28;20567;-72
2021/12/17 09:14:12;;;;;;;99.45;23.40;;;;;;;6.91;100.00;103751.91;4984903;28;20509;-72
2021/12/17 09:16:51;;;;;;;104.35;22.33;;;;;;;6.94;100.00;103754.38;4984967;28;20038;-72
2021/12/17 09:19:18;;;;;;;91.28;21.17;;;;;;;6.90;100.00;103745.91;4987666;28;20104;-72
2021/12/17 09:21:49;;;;;;;96.50;22.52;;;;;;;6.82;100.00;103759.09;4984654;28;20034;-72
2021/12/17 09:24:31;;;;;;;95.15;21.50;;;;;;;6.87;100.00;103752.94;4982701;28;20741;-73
2021/12/17 09:27:14;;;;;;;92.70;21.55;;;;;;;6.85;100.00;103742.66;4987383;28;20041;-73
2021/12/17 09:30:15;;;;;;;104.60;21.00;;;;;;;6.86;100.00;103752.09;4975068;28;20046;-71
2021/12/17 09:32:41;;;;;;;85.90;20.48;;;;;;;6.85;100.00;103759.88;4989118;28;20034;-72
2021/12/17 09:35:09;;;;;;;89.85;21.75;;;;;;;6.85;100.00;103759.88;4988178;28;20030;-72
2021/12/17 09:37:34;;;;;;;97.10;22.30;;;;;;;6.86;100.00;103762.41;4999022;28;20068;-73
2021/12/17 09:40:00;;;;;;;98.72;22.17;;;;;;;6.81;100.00;103760.00;4988946;28;20070;-72
2021/12/17 09:42:27;;;;;;;92.15;20.33;;;;;;;6.87;100.00;103763.25;4986660;28;20026;-71
2021/12/17 09:44:53;;;;;;;91.40;20.45;;;;;;;6.85;100.00;103765.88;4989971;28;20027;-73
2021/12/17 09:47:18;;;;;;;92.85;21.65;;;;;;;6.94;100.00;103756.94;4989229;28;20052;-71
2021/12/17 09:49:45;;;;;;;80.95;21.38;;;;;;;6.92;100.00;103759.59;4984481;28;20041;-72
2021/12/17 09:52:11;;;;;;;85.50;20.75;;;;;;;6.89;100.00;103759.69;4994881;28;20113;-72
2021/12/17 09:54:37;;;;;;;83.35;20.60;;;;;;;6.90;100.00;103760.56;4972027;28;20030;-72
2021/12/17 09:57:04;;;;;;;82.57;20.38;;;;;;;6.89;100.00;103762.28;4974904;28;20408;-73
2021/12/17 09:59:30;;;;;;;100.97;21.52;;;;;;;6.89;100.00;103770.00;4984859;28;20547;-71
2021/12/17 10:01:56;;;;;;;106.07;22.10;;;;;;;6.92;100.00;103763.91;4982315;28;20027;-72
2021/12/17 10:04:27;;;;;;;86.00;20.92;;;;;;;6.93;100.00;103770.75;4986208;28;20473;-72
2021/12/17 10:07:13;;;;;;;88.30;20.70;;;;;;;6.98;100.00;103769.66;4986908;28;20034;-72
2021/12/17 10:09:45;;;;;;;91.63;20.90;;;;;;;6.96;100.00;103768.88;4985734;28;20035;-72
2021/12/17 10:12:11;;;;;;;90.97;23.60;;;;;;;6.99;100.00;103770.53;4980721;28;20074;-72
2021/12/17 10:14:38;;;;;;;105.90;24.27;;;;;;;7.02;100.00;103776.38;4987278;28;20072;-72
2021/12/17 10:17:21;;;;;;;88.68;22.80;;;;;;;7.04;100.00;103766.00;4990486;28;20041;-72
2021/12/17 10:19:50;;;;;;;97.25;21.55;;;;;;;7.07;100.00;103762.47;4976476;28;20377;-72
2021/12/17 10:22:19;;;;;;;94.65;23.38;;;;;;;7.09;100.00;103761.50;4989695;28;20113;-72
2021/12/17 10:25:02;;;;;;;90.82;22.27;;;;;;;7.09;100.00;103769.25;4965928;28;20050;-71
2021/12/17 10:27:38;;;;;;;99.70;23.23;;;;;;;7.07;100.00;103773.63;4990212;28;20112;-71
2021/12/17 10:30:21;;;;;;;106.03;25.75;;;;;;;7.07;100.00;103770.22;4993157;28;20181;-72
2021/12/17 10:32:53;;;;;;;98.03;23.20;;;;;;;7.09;100.00;103782.16;4986381;28;20034;-72
2021/12/17 10:35:27;;;;;;;87.10;23.33;;;;;;;7.12;100.00;103779.47;4985136;28;20049;-72
2021/12/17 10:37:57;;;;;;;102.32;24.23;;;;;;;7.17;100.00;103774.94;4988052;28;20050;-73
2021/12/17 10:40:27;;;;;;;93.38;24.48;;;;;;;7.16;100.00;103782.75;4985114;28;20121;-72
2021/12/17 10:43:03;;;;;;;98.28;22.25;;;;;;;7.15;100.00;103779.31;4985524;28;20108;-72
2021/12/17 10:45:32;;;;;;;106.03;25.00;;;;;;;7.18;100.00;103774.03;4991132;28;20121;-71
2021/12/17 10:48:03;;;;;;;103.13;25.13;;;;;;;7.14;100.00;103772.50;4980982;28;20134;-72
2021/12/17 10:50:29;;;;;;;115.80;28.20;;;;;;;7.18;100.00;103773.22;4986093;28;20437;-72
2021/12/17 10:52:58;;;;;;;101.45;23.92;;;;;;;7.18;100.00;103766.31;4986656;28;20030;-73
2021/12/17 10:55:25;;;;;;;113.00;25.20;;;;;;;7.25;100.00;103764.28;4990870;28;20038;-72
2021/12/17 10:57:58;;;;;;;93.85;24.63;;;;;;;7.24;100.00;103762.63;4992106;28;20112;-72
2021/12/17 11:00:24;;;;;;;111.30;25.40;;;;;;;7.20;100.00;103761.09;4988202;28;20084;-73
2021/12/17 11:02:51;;;;;;;110.20;25.63;;;;;;;7.27;100.00;103759.09;4972893;28;20443;-72
2021/12/17 11:05:17;;;;;;;106.30;26.17;;;;;;;7.28;100.00;103753.84;4991876;28;20038;-72
2021/12/17 11:07:50;;;;;;;114.95;27.95;;;;;;;7.24;100.00;103760.06;4988922;28;20041;-72
2021/12/17 11:10:31;;;;;;;109.22;24.88;;;;;;;7.26;100.00;103760.84;4989841;28;20095;-72
2021/12/17 11:12:57;;;;;;;102.80;25.67;;;;;;;7.26;100.00;103758.25;4992521;28;20559;-71
2021/12/17 11:15:26;;;;;;;108.00;27.05;;;;;;;7.27;100.00;103754.78;4991639;28;20037;-72
2021/12/17 11:17:59;;;;;;;125.32;26.77;;;;;;;7.28;100.00;103753.03;4993248;28;20030;-71
2021/12/17 11:20:27;;;;;;;120.47;32.05;;;;;;;7.35;100.00;103752.72;4986663;28;20057;-72
2021/12/17 11:22:55;;;;;;;110.90;27.60;;;;;;;7.36;100.00;103756.13;4989649;28;20030;-72
2021/12/17 11:25:24;;;;;;;118.32;29.05;;;;;;;7.37;100.00;103752.66;4971085;28;20453;-72
2021/12/17 11:27:51;;;;;;;124.72;30.77;;;;;;;7.33;100.00;103754.53;4989899;28;20037;-72
2021/12/17 11:30:23;;;;;;;120.03;32.47;;;;;;;7.34;100.00;103750.19;4966103;28;20069;-72
2021/12/17 11:32:50;;;;;;;124.32;31.05;;;;;;;7.32;100.00;103752.81;4987518;28;20084;-71
2021/12/17 11:35:19;;;;;;;116.20;29.08;;;;;;;7.32;100.00;103759.75;4967458;28;20085;-71
2021/12/17 11:37:49;;;;;;;141.13;33.90;;;;;;;7.31;100.00;103752.88;4990148;28;20102;-73
2021/12/17 11:40:31;;;;;;;144.40;33.33;;;;;;;7.37;100.00;103755.25;4985931;28;20031;-73
2021/12/17 11:43:52;;;;;;;118.18;31.13;;;;;;;7.34;100.00;103756.19;4966993;28;20031;-72
2021/12/17 11:46:25;;;;;;;145.48;35.58;;;;;;;7.36;100.00;103756.13;4949034;28;20505;-71
2021/12/17 11:48:55;;;;;;;141.90;33.05;;;;;;;7.34;100.00;103751.03;4945146;28;20031;-73
2021/12/17 11:51:26;;;;;;;136.27;35.17;;;;;;;7.34;100.00;103757.94;4969351;28;20129;-72
2021/12/17 11:53:52;;;;;;;138.95;34.33;;;;;;;7.36;100.00;103753.53;4990282;28;20061;-72
2021/12/17 11:56:39;;;;;;;130.00;31.95;;;;;;;7.43;100.00;103749.81;4990146;28;20077;-72
2021/12/17 11:59:04;;;;;;;144.63;34.97;;;;;;;7.41;100.00;103747.28;4990077;28;20091;-71
2021/12/17 12:01:52;;;;;;;135.88;36.03;;;;;;;7.43;100.00;103752.41;4986936;28;20484;-71
2021/12/17 12:04:25;;;;;;;134.90;32.38;;;;;;;7.44;100.00;103746.34;5002186;28;20042;-72
2021/12/17 12:07:03;;;;;;;140.05;38.97;;;;;;;7.44;100.00;103748.94;4992327;28;20065;-72
2021/12/17 12:09:58;;;;;;;132.15;39.78;;;;;;;7.43;100.00;103746.41;4989994;28;20042;-72
2021/12/17 12:12:33;;;;;;;120.65;33.42;;;;;;;7.42;100.00;103742.97;4988830;28;20112;-72
2021/12/17 12:15:17;;;;;;;133.35;35.22;;;;;;;7.43;100.00;103743.81;4987185;28;20499;-71
2021/12/17 12:17:58;;;;;;;126.43;35.13;;;;;;;7.44;100.00;103740.31;4990344;28;20571;-71
2021/12/17 12:20:56;;;;;;;143.52;43.03;;;;;;;7.45;100.00;103748.00;4990806;28;20121;-72
2021/12/17 12:23:31;;;;;;;121.65;35.53;;;;;;;7.45;100.00;103739.44;4995519;28;20037;-72
2021/12/17 12:26:07;;;;;;;117.45;38.28;;;;;;;7.46;100.00;103748.84;4994757;28;20030;-72
2021/12/17 12:28:45;;;;;;;106.30;34.38;;;;;;;7.43;100.00;103746.41;4986824;28;20034;-71
2021/12/17 12:31:38;;;;;;;122.80;43.25;;;;;;;7.43;100.00;103744.66;4987276;28;20645;-71
2021/12/17 12:34:11;;;;;;;112.77;32.10;;;;;;;7.48;100.00;103734.13;4992555;28;20112;-71
2021/12/17 12:36:55;;;;;;;;;;;;;;;7.44;100.00;103727.41;4985911;28;20010;-71
2021/12/17 12:39:38;;;;;;;98.63;29.98;;;;;;;7.44;100.00;103725.69;4987835;28;19918;-71
2021/12/17 12:42:19;;;;;;;81.50;27.70;;;;;;;7.44;100.00;103728.28;4991219;28;20049;-72
2021/12/17 12:44:44;;;;;;;85.45;28.92;;;;;;;7.43;100.00;103733.50;4988376;28;20042;-72
2021/12/17 12:47:14;;;;;;;76.80;23.00;;;;;;;7.45;100.00;103735.09;4984304;28;20117;-72
2021/12/17 12:49:45;;;;;;;83.30;24.15;;;;;;;7.37;100.00;103727.66;4990269;28;20045;-75
2021/12/17 12:52:39;;;;;;;72.05;21.27;;;;;;;7.39;100.00;103725.03;4985925;28;20472;-72
2021/12/17 12:55:26;;;;;;;75.75;23.27;;;;;;;7.43;100.00;103724.00;4982308;28;20065;-72
2021/12/17 12:57:57;;;;;;;73.80;22.25;;;;;;;7.44;100.00;103719.66;4987479;28;20161;-72
2021/12/17 13:00:28;;;;;;;100.60;33.00;;;;;;;7.41;100.00;103726.63;4991210;28;20084;-72
2021/12/17 13:02:59;;;;;;;109.80;37.70;;;;;;;7.41;100.00;103720.63;4987930;28;20030;-72
2021/12/17 13:05:26;;;;;;;76.68;26.30;;;;;;;7.39;100.00;103718.13;5005054;28;20043;-72
2021/12/17 13:07:57;;;;;;;70.88;23.63;;;;;;;7.44;100.00;103720.53;4984487;28;20385;-72
2021/12/17 13:10:30;;;;;;;64.57;21.45;;;;;;;7.46;100.00;103715.28;4988321;28;20382;-72
2021/12/17 13:13:01;;;;;;;65.20;22.02;;;;;;;7.47;100.00;103720.38;4990360;28;20389;-72
2021/12/17 13:26:37;;;;;;;55.80;18.75;;;;;;;7.54;100.00;103719.22;4982997;28;20026;-71
2021/12/17 13:29:09;;;;;;;53.50;19.90;;;;;;;7.55;100.00;103722.63;4988218;28;20185;-72
2021/12/17 13:31:39;;;;;;;54.35;18.85;;;;;;;7.57;100.00;103726.00;4988818;28;20672;-71
2021/12/17 13:34:15;;;;;;;52.80;18.00;;;;;;;7.55;100.00;103720.91;4992339;28;20627;-72
2021/12/17 13:37:00;;;;;;;47.00;17.42;;;;;;;7.53;100.00;103714.94;4989756;28;20084;-71
2021/12/17 13:39:30;;;;;;;48.55;17.90;;;;;;;7.54;100.00;103718.38;4983564;28;20377;-71
2021/12/17 13:41:56;;;;;;;51.28;18.83;;;;;;;7.53;100.00;103714.94;4988569;28;20125;-71
2021/12/17 13:44:33;;;;;;;48.13;18.45;;;;;;;7.55;100.00;103707.13;4987399;28;20030;-72
2021/12/17 13:47:11;;;;;;;40.65;15.73;;;;;;;7.58;100.00;103702.69;4987016;28;20076;-71
2021/12/17 13:49:38;;;;;;;43.83;16.25;;;;;;;7.57;100.00;103697.59;4991864;28;20117;-72
2021/12/17 13:52:05;;;;;;;39.65;16.40;;;;;;;7.63;100.00;103689.59;4973506;28;20030;-73
2021/12/17 13:54:31;;;;;;;36.67;15.13;;;;;;;7.63;100.00;103694.75;4985100;28;20037;-72
2021/12/17 13:56:59;;;;;;;37.03;15.02;;;;;;;7.70;100.00;103688.41;4981607;28;20112;-72
2021/12/17 13:59:34;;;;;;;35.13;15.40;;;;;;;7.66;100.00;103684.28;4985618;28;20046;-71
2021/12/17 14:02:11;;;;;;;38.78;16.30;;;;;;;7.65;100.00;103686.91;4986375;28;20034;-71
2021/12/17 14:04:37;;;;;;;40.83;17.45;;;;;;;7.64;100.00;103687.84;4986165;28;20540;-71
2021/12/17 14:07:08;;;;;;;51.40;23.15;;;;;;;7.59;100.00;103688.88;4976933;28;20042;-71
2021/12/17 14:09:34;;;;;;;52.90;24.50;;;;;;;7.57;100.00;103688.09;4989218;28;20030;-72